sensor_id;sensor_type;location;lat;lon;timestamp;pressure;altitude;pressure_sealevel;temperature;humidity
8051;BME280;4068;42.158;24.732;2023-02-28T00:00:49;100147.59;;;8.58;100.00
8051;BME280;4068;42.158;24.732;2023-02-28T00:03:15;100166.59;;;8.65;100.00
8051;BME280;4068;42.158;24.732;2023-02-28T00:05:40;100181.38;;;8.68;100.00
8051;BME280;4068;42.158;24.732;2023-02-28T00:08:07;100168.94;;;8.55;100.00
8051;BME280;4068;42.158;24.732;2023-02-28T00:10:33;100188.09;;;8.73;100.00
8051;BME280;4068;42.158;24.732;2023-02-28T00:13:02;100192.53;;;8.73;100.00
8051;BME280;4068;42.158;24.732;2023-02-28T00:15:28;100192.44;;;8.60;100.00
8051;BME280;4068;42.158;24.732;2023-02-28T00:17:54;100195.94;;;8.60;100.00
8051;BME280;4068;42.158;24.732;2023-02-28T00:20:19;100171.31;;;8.45;100.00
8051;BME280;4068;42.158;24.732;2023-02-28T00:22:47;100194.81;;;8.50;100.00
8051;BME280;4068;42.158;24.732;2023-02-28T00:25:18;100172.03;;;8.33;100.00
8051;BME280;4068;42.158;24.732;2023-02-28T00:27:45;100158.06;;;8.31;100.00
8051;BME280;4068;42.158;24.732;2023-02-28T00:30:17;100156.25;;;8.32;100.00
8051;BME280;4068;42.158;24.732;2023-02-28T00:32:43;100185.53;;;8.43;100.00
8051;BME280;4068;42.158;24.732;2023-02-28T00:35:09;100180.25;;;8.43;100.00
8051;BME280;4068;42.158;24.732;2023-02-28T00:37:35;100173.09;;;8.45;100.00
8051;BME280;4068;42.158;24.732;2023-02-28T00:40:01;100171.03;;;8.50;100.00
8051;BME280;4068;42.158;24.732;2023-02-28T00:42:29;100155.72;;;8.55;100.00
8051;BME280;4068;42.158;24.732;2023-02-28T00:44:55;100171.41;;;8.58;100.00
8051;BME280;4068;42.158;24.732;2023-02-28T00:47:20;100175.47;;;8.64;100.00
8051;BME280;4068;42.158;24.732;2023-02-28T00:49:46;100172.91;;;8.62;100.00
8051;BME280;4068;42.158;24.732;2023-02-28T00:52:11;100139.59;;;8.45;100.00
8051;BME280;4068;42.158;24.732;2023-02-28T00:54:37;100178.28;;;8.61;100.00
8051;BME280;4068;42.158;24.732;2023-02-28T00:57:02;100184.91;;;8.54;100.00
8051;BME280;4068;42.158;24.732;2023-02-28T00:59:28;100175.66;;;8.46;100.00
8051;BME280;4068;42.158;24.732;2023-02-28T01:01:53;100191.84;;;8.40;100.00
8051;BME280;4068;42.158;24.732;2023-02-28T01:04:18;100186.94;;;8.34;100.00
8051;BME280;4068;42.158;24.732;2023-02-28T01:06:44;100184.41;;;8.33;100.00
8051;BME280;4068;42.158;24.732;2023-02-28T01:09:10;100178.03;;;8.21;100.00
8051;BME280;4068;42.158;24.732;2023-02-28T01:11:36;100193.44;;;8.28;100.00
8051;BME280;4068;42.158;24.732;2023-02-28T01:14:02;100201.66;;;8.24;100.00
8051;BME280;4068;42.158;24.732;2023-02-28T01:16:27;100201.19;;;8.32;100.00
8051;BME280;4068;42.158;24.732;2023-02-28T01:18:53;100210.72;;;8.34;100.00
8051;BME280;4068;42.158;24.732;2023-02-28T01:21:20;100213.00;;;8.40;100.00
8051;BME280;4068;42.158;24.732;2023-02-28T01:23:47;100223.25;;;8.46;100.00
8051;BME280;4068;42.158;24.732;2023-02-28T01:26:19;100221.25;;;8.50;100.00
8051;BME280;4068;42.158;24.732;2023-02-28T01:28:45;100212.19;;;8.54;100.00
8051;BME280;4068;42.158;24.732;2023-02-28T01:31:11;100211.34;;;8.54;100.00
8051;BME280;4068;42.158;24.732;2023-02-28T01:33:37;100198.38;;;8.49;100.00
8051;BME280;4068;42.158;24.732;2023-02-28T01:36:05;100206.72;;;8.57;100.00
8051;BME280;4068;42.158;24.732;2023-02-28T01:38:32;100208.31;;;8.60;100.00
8051;BME280;4068;42.158;24.732;2023-02-28T01:40:57;100221.25;;;8.64;100.00
8051;BME280;4068;42.158;24.732;2023-02-28T01:46:15;100233.53;;;8.66;100.00
8051;BME280;4068;42.158;24.732;2023-02-28T01:48:44;100242.31;;;8.80;100.00
8051;BME280;4068;42.158;24.732;2023-02-28T01:51:15;100239.63;;;8.95;100.00
8051;BME280;4068;42.158;24.732;2023-02-28T01:53:45;100230.22;;;8.91;100.00
8051;BME280;4068;42.158;24.732;2023-02-28T01:56:13;100217.53;;;8.96;100.00
8051;BME280;4068;42.158;24.732;2023-02-28T01:58:47;100249.34;;;9.23;100.00
8051;BME280;4068;42.158;24.732;2023-02-28T02:01:13;100251.66;;;9.42;100.00
8051;BME280;4068;42.158;24.732;2023-02-28T02:03:48;100256.91;;;9.57;100.00
8051;BME280;4068;42.158;24.732;2023-02-28T02:06:24;100245.91;;;9.63;100.00
8051;BME280;4068;42.158;24.732;2023-02-28T02:08:50;100281.47;;;9.86;100.00
8051;BME280;4068;42.158;24.732;2023-02-28T02:11:18;100275.81;;;9.92;100.00
8051;BME280;4068;42.158;24.732;2023-02-28T02:16:54;100275.84;;;10.05;100.00
8051;BME280;4068;42.158;24.732;2023-02-28T02:27:45;100271.13;;;9.96;100.00
8051;BME280;4068;42.158;24.732;2023-02-28T02:30:39;100276.94;;;9.88;100.00
8051;BME280;4068;42.158;24.732;2023-02-28T02:33:22;100274.25;;;9.75;100.00
8051;BME280;4068;42.158;24.732;2023-02-28T02:35:55;100281.53;;;9.72;100.00
8051;BME280;4068;42.158;24.732;2023-02-28T02:38:36;100279.09;;;9.68;100.00
8051;BME280;4068;42.158;24.732;2023-02-28T02:41:34;100284.25;;;9.57;100.00
8051;BME280;4068;42.158;24.732;2023-02-28T02:44:12;100289.16;;;9.49;100.00
8051;BME280;4068;42.158;24.732;2023-02-28T02:46:43;100282.56;;;9.42;100.00
8051;BME280;4068;42.158;24.732;2023-02-28T02:49:13;100254.19;;;9.17;100.00
8051;BME280;4068;42.158;24.732;2023-02-28T02:51:41;100282.22;;;9.19;100.00
8051;BME280;4068;42.158;24.732;2023-02-28T02:56:44;100305.97;;;9.21;100.00
8051;BME280;4068;42.158;24.732;2023-02-28T02:59:13;100311.63;;;9.14;100.00
8051;BME280;4068;42.158;24.732;2023-02-28T03:01:49;100302.00;;;8.99;100.00
8051;BME280;4068;42.158;24.732;2023-02-28T03:04:22;100321.09;;;9.04;100.00
8051;BME280;4068;42.158;24.732;2023-02-28T03:06:50;100327.72;;;9.11;100.00
8051;BME280;4068;42.158;24.732;2023-02-28T03:09:20;100326.59;;;9.15;100.00
8051;BME280;4068;42.158;24.732;2023-02-28T03:11:46;100319.56;;;9.14;100.00
8051;BME280;4068;42.158;24.732;2023-02-28T03:25:32;100341.31;;;9.20;100.00
8051;BME280;4068;42.158;24.732;2023-02-28T03:34:00;100347.06;;;9.12;100.00
8051;BME280;4068;42.158;24.732;2023-02-28T03:36:38;100321.28;;;9.01;100.00
8051;BME280;4068;42.158;24.732;2023-02-28T03:39:16;100349.72;;;9.12;100.00
8051;BME280;4068;42.158;24.732;2023-02-28T03:41:46;100351.53;;;9.11;100.00
8051;BME280;4068;42.158;24.732;2023-02-28T03:44:39;100343.41;;;9.14;100.00
8051;BME280;4068;42.158;24.732;2023-02-28T03:47:14;100345.94;;;9.16;100.00
8051;BME280;4068;42.158;24.732;2023-02-28T03:49:53;100357.66;;;9.12;100.00
8051;BME280;4068;42.158;24.732;2023-02-28T03:52:23;100360.22;;;9.13;100.00
8051;BME280;4068;42.158;24.732;2023-02-28T03:54:53;100361.06;;;9.14;100.00
8051;BME280;4068;42.158;24.732;2023-02-28T03:57:40;100363.34;;;9.20;100.00
8051;BME280;4068;42.158;24.732;2023-02-28T04:00:18;100367.22;;;9.14;100.00
8051;BME280;4068;42.158;24.732;2023-02-28T04:02:45;100371.28;;;9.20;100.00
8051;BME280;4068;42.158;24.732;2023-02-28T04:05:10;100379.13;;;9.22;100.00
8051;BME280;4068;42.158;24.732;2023-02-28T04:07:36;100372.78;;;9.24;100.00
8051;BME280;4068;42.158;24.732;2023-02-28T04:10:03;100378.19;;;9.23;100.00
8051;BME280;4068;42.158;24.732;2023-02-28T04:12:28;100389.16;;;9.17;100.00
8051;BME280;4068;42.158;24.732;2023-02-28T04:14:54;100391.31;;;9.10;100.00
8051;BME280;4068;42.158;24.732;2023-02-28T04:17:19;100400.47;;;9.19;100.00
8051;BME280;4068;42.158;24.732;2023-02-28T04:19:45;100406.56;;;9.21;100.00
8051;BME280;4068;42.158;24.732;2023-02-28T04:22:10;100394.53;;;9.29;100.00
8051;BME280;4068;42.158;24.732;2023-02-28T04:24:36;100403.22;;;9.17;100.00
8051;BME280;4068;42.158;24.732;2023-02-28T04:27:01;100388.66;;;9.10;100.00
8051;BME280;4068;42.158;24.732;2023-02-28T04:29:29;100400.97;;;9.11;100.00
8051;BME280;4068;42.158;24.732;2023-02-28T04:31:56;100350.09;;;8.77;100.00
8051;BME280;4068;42.158;24.732;2023-02-28T04:34:23;100390.44;;;8.95;100.00
8051;BME280;4068;42.158;24.732;2023-02-28T04:36:49;100402.53;;;8.99;100.00
8051;BME280;4068;42.158;24.732;2023-02-28T04:39:16;100390.44;;;8.95;100.00
8051;BME280;4068;42.158;24.732;2023-02-28T04:41:44;100383.47;;;8.94;100.00
8051;BME280;4068;42.158;24.732;2023-02-28T04:44:09;100394.16;;;9.07;100.00
8051;BME280;4068;42.158;24.732;2023-02-28T04:46:35;100403.22;;;9.03;100.00
8051;BME280;4068;42.158;24.732;2023-02-28T04:49:00;100375.41;;;8.81;100.00
8051;BME280;4068;42.158;24.732;2023-02-28T04:51:26;100374.63;;;8.79;100.00
8051;BME280;4068;42.158;24.732;2023-02-28T04:53:51;100413.03;;;9.01;100.00
8051;BME280;4068;42.158;24.732;2023-02-28T04:56:17;100386.66;;;8.85;100.00
8051;BME280;4068;42.158;24.732;2023-02-28T04:58:43;100388.06;;;8.90;100.00
8051;BME280;4068;42.158;24.732;2023-02-28T05:01:26;100415.66;;;8.86;100.00
8051;BME280;4068;42.158;24.732;2023-02-28T05:03:54;100415.97;;;8.96;100.00
8051;BME280;4068;42.158;24.732;2023-02-28T05:06:23;100425.88;;;8.92;100.00
8051;BME280;4068;42.158;24.732;2023-02-28T05:08:49;100432.03;;;8.93;100.00
8051;BME280;4068;42.158;24.732;2023-02-28T05:13:51;100401.69;;;8.84;100.00
8051;BME280;4068;42.158;24.732;2023-02-28T05:16:18;100437.34;;;9.07;100.00
8051;BME280;4068;42.158;24.732;2023-02-28T05:18:44;100438.00;;;9.11;100.00
8051;BME280;4068;42.158;24.732;2023-02-28T05:21:29;100438.75;;;9.13;100.00
8051;BME280;4068;42.158;24.732;2023-02-28T05:23:57;100432.81;;;9.09;100.00
8051;BME280;4068;42.158;24.732;2023-02-28T05:26:24;100424.97;;;9.08;100.00
8051;BME280;4068;42.158;24.732;2023-02-28T05:28:49;100446.25;;;9.21;100.00
8051;BME280;4068;42.158;24.732;2023-02-28T05:31:15;100445.19;;;9.23;100.00
8051;BME280;4068;42.158;24.732;2023-02-28T05:33:41;100460.03;;;9.26;100.00
8051;BME280;4068;42.158;24.732;2023-02-28T05:36:06;100465.06;;;9.30;100.00
8051;BME280;4068;42.158;24.732;2023-02-28T05:38:32;100469.13;;;9.36;100.00
8051;BME280;4068;42.158;24.732;2023-02-28T05:40:58;100468.78;;;9.42;100.00
8051;BME280;4068;42.158;24.732;2023-02-28T05:43:24;100455.78;;;9.23;100.00
8051;BME280;4068;42.158;24.732;2023-02-28T05:45:49;100474.06;;;9.28;100.00
8051;BME280;4068;42.158;24.732;2023-02-28T05:48:15;100468.56;;;9.31;100.00
8051;BME280;4068;42.158;24.732;2023-02-28T05:50:40;100476.53;;;9.45;100.00
8051;BME280;4068;42.158;24.732;2023-02-28T05:53:07;100468.88;;;9.41;100.00
8051;BME280;4068;42.158;24.732;2023-02-28T05:55:33;100478.34;;;9.45;100.00
8051;BME280;4068;42.158;24.732;2023-02-28T05:57:58;100481.06;;;9.58;100.00
8051;BME280;4068;42.158;24.732;2023-02-28T06:00:24;100468.00;;;9.55;100.00
8051;BME280;4068;42.158;24.732;2023-02-28T06:02:49;100489.66;;;9.61;100.00
8051;BME280;4068;42.158;24.732;2023-02-28T06:05:17;100494.41;;;9.71;100.00
8051;BME280;4068;42.158;24.732;2023-02-28T06:07:43;100487.97;;;9.89;100.00
8051;BME280;4068;42.158;24.732;2023-02-28T06:10:13;100486.63;;;10.11;100.00
8051;BME280;4068;42.158;24.732;2023-02-28T06:12:39;100489.84;;;9.87;100.00
8051;BME280;4068;42.158;24.732;2023-02-28T06:15:07;100505.00;;;9.85;100.00
8051;BME280;4068;42.158;24.732;2023-02-28T06:17:32;100502.88;;;10.05;100.00
8051;BME280;4068;42.158;24.732;2023-02-28T06:19:58;100501.19;;;10.04;100.00
8051;BME280;4068;42.158;24.732;2023-02-28T06:22:23;100500.59;;;10.13;100.00
8051;BME280;4068;42.158;24.732;2023-02-28T06:24:49;100503.75;;;10.05;100.00
8051;BME280;4068;42.158;24.732;2023-02-28T06:27:14;100497.38;;;10.22;100.00
8051;BME280;4068;42.158;24.732;2023-02-28T06:29:40;100503.22;;;10.27;100.00
8051;BME280;4068;42.158;24.732;2023-02-28T06:32:05;100476.19;;;10.22;100.00
8051;BME280;4068;42.158;24.732;2023-02-28T06:34:31;100502.69;;;10.36;100.00
8051;BME280;4068;42.158;24.732;2023-02-28T06:36:59;100512.41;;;10.36;100.00
8051;BME280;4068;42.158;24.732;2023-02-28T06:39:30;100484.91;;;10.10;100.00
8051;BME280;4068;42.158;24.732;2023-02-28T06:41:56;100496.19;;;10.13;100.00
8051;BME280;4068;42.158;24.732;2023-02-28T06:44:22;100483.34;;;10.20;100.00
8051;BME280;4068;42.158;24.732;2023-02-28T06:46:48;100499.09;;;10.09;100.00
8051;BME280;4068;42.158;24.732;2023-02-28T06:49:14;100514.97;;;10.23;100.00
8051;BME280;4068;42.158;24.732;2023-02-28T06:51:43;100501.47;;;10.13;100.00
8051;BME280;4068;42.158;24.732;2023-02-28T06:54:11;100495.22;;;10.00;100.00
8051;BME280;4068;42.158;24.732;2023-02-28T06:56:37;100513.75;;;10.14;100.00
8051;BME280;4068;42.158;24.732;2023-02-28T06:59:03;100522.84;;;10.39;100.00
8051;BME280;4068;42.158;24.732;2023-02-28T07:01:29;100527.25;;;10.53;100.00
8051;BME280;4068;42.158;24.732;2023-02-28T07:03:57;100522.81;;;10.53;100.00
8051;BME280;4068;42.158;24.732;2023-02-28T07:06:22;100513.94;;;10.40;100.00
8051;BME280;4068;42.158;24.732;2023-02-28T07:08:49;100525.16;;;10.58;100.00
8051;BME280;4068;42.158;24.732;2023-02-28T07:11:15;100527.81;;;10.85;100.00
8051;BME280;4068;42.158;24.732;2023-02-28T07:13:40;100515.06;;;10.78;100.00
8051;BME280;4068;42.158;24.732;2023-02-28T07:16:09;100502.53;;;10.52;100.00
8051;BME280;4068;42.158;24.732;2023-02-28T07:18:36;100526.91;;;10.72;100.00
8051;BME280;4068;42.158;24.732;2023-02-28T07:21:02;100534.94;;;10.58;100.00
8051;BME280;4068;42.158;24.732;2023-02-28T07:23:28;100512.09;;;10.55;100.00
8051;BME280;4068;42.158;24.732;2023-02-28T07:25:53;100522.34;;;10.74;100.00
8051;BME280;4068;42.158;24.732;2023-02-28T07:28:19;100522.50;;;10.85;100.00
8051;BME280;4068;42.158;24.732;2023-02-28T07:30:44;100541.97;;;10.99;100.00
8051;BME280;4068;42.158;24.732;2023-02-28T07:33:10;100541.28;;;10.82;100.00
8051;BME280;4068;42.158;24.732;2023-02-28T07:35:36;100545.03;;;10.65;100.00
8051;BME280;4068;42.158;24.732;2023-02-28T07:38:01;100523.50;;;10.28;100.00
8051;BME280;4068;42.158;24.732;2023-02-28T07:40:28;100558.38;;;10.36;100.00
8051;BME280;4068;42.158;24.732;2023-02-28T07:42:53;100543.31;;;10.08;100.00
8051;BME280;4068;42.158;24.732;2023-02-28T07:45:19;100546.34;;;10.16;100.00
8051;BME280;4068;42.158;24.732;2023-02-28T07:47:45;100555.72;;;10.36;100.00
8051;BME280;4068;42.158;24.732;2023-02-28T07:50:13;100549.00;;;10.16;100.00
8051;BME280;4068;42.158;24.732;2023-02-28T07:52:39;100540.75;;;10.21;100.00
8051;BME280;4068;42.158;24.732;2023-02-28T07:55:07;100534.31;;;10.25;100.00
8051;BME280;4068;42.158;24.732;2023-02-28T07:57:33;100539.19;;;10.46;100.00
8051;BME280;4068;42.158;24.732;2023-02-28T07:59:58;100545.63;;;10.56;100.00
8051;BME280;4068;42.158;24.732;2023-02-28T08:02:24;100530.63;;;10.69;100.00
8051;BME280;4068;42.158;24.732;2023-02-28T08:04:49;100525.56;;;10.79;100.00
8051;BME280;4068;42.158;24.732;2023-02-28T08:07:16;100544.72;;;10.97;100.00
8051;BME280;4068;42.158;24.732;2023-02-28T08:09:43;100533.13;;;10.58;100.00
8051;BME280;4068;42.158;24.732;2023-02-28T08:12:10;100554.13;;;10.61;100.00
8051;BME280;4068;42.158;24.732;2023-02-28T08:14:36;100543.56;;;10.74;100.00
8051;BME280;4068;42.158;24.732;2023-02-28T08:17:03;100556.78;;;10.88;100.00
8051;BME280;4068;42.158;24.732;2023-02-28T08:19:28;100546.00;;;10.92;100.00
8051;BME280;4068;42.158;24.732;2023-02-28T08:21:54;100560.34;;;11.02;100.00
8051;BME280;4068;42.158;24.732;2023-02-28T08:24:20;100536.53;;;10.87;100.00
8051;BME280;4068;42.158;24.732;2023-02-28T08:26:45;100566.28;;;11.05;100.00
8051;BME280;4068;42.158;24.732;2023-02-28T08:29:11;100561.84;;;10.79;100.00
8051;BME280;4068;42.158;24.732;2023-02-28T08:31:36;100541.06;;;10.58;100.00
8051;BME280;4068;42.158;24.732;2023-02-28T08:34:10;100551.84;;;10.69;100.00
8051;BME280;4068;42.158;24.732;2023-02-28T08:36:36;100537.38;;;10.88;100.00
8051;BME280;4068;42.158;24.732;2023-02-28T08:39:02;100524.94;;;10.88;100.00
8051;BME280;4068;42.158;24.732;2023-02-28T08:41:28;100559.75;;;11.24;100.00
8051;BME280;4068;42.158;24.732;2023-02-28T08:43:53;100562.50;;;11.22;100.00
8051;BME280;4068;42.158;24.732;2023-02-28T08:46:19;100557.50;;;11.05;100.00
8051;BME280;4068;42.158;24.732;2023-02-28T08:48:44;100555.06;;;11.15;100.00
8051;BME280;4068;42.158;24.732;2023-02-28T08:51:15;100559.13;;;11.20;100.00
8051;BME280;4068;42.158;24.732;2023-02-28T08:53:44;100569.34;;;11.39;100.00
8051;BME280;4068;42.158;24.732;2023-02-28T08:56:12;100569.31;;;11.27;100.00
8051;BME280;4068;42.158;24.732;2023-02-28T08:58:38;100567.53;;;11.40;100.00
8051;BME280;4068;42.158;24.732;2023-02-28T09:01:09;100561.44;;;11.12;100.00
8051;BME280;4068;42.158;24.732;2023-02-28T09:03:35;100564.22;;;11.23;100.00
8051;BME280;4068;42.158;24.732;2023-02-28T09:06:00;100567.88;;;11.48;100.00
8051;BME280;4068;42.158;24.732;2023-02-28T09:08:28;100560.88;;;11.47;100.00
8051;BME280;4068;42.158;24.732;2023-02-28T09:10:58;100539.97;;;11.02;100.00
8051;BME280;4068;42.158;24.732;2023-02-28T09:13:24;100572.97;;;11.51;100.00
8051;BME280;4068;42.158;24.732;2023-02-28T09:15:50;100574.63;;;11.27;100.00
8051;BME280;4068;42.158;24.732;2023-02-28T09:18:16;100563.25;;;11.12;100.00
8051;BME280;4068;42.158;24.732;2023-02-28T09:20:42;100533.34;;;10.95;100.00
8051;BME280;4068;42.158;24.732;2023-02-28T09:23:09;100563.44;;;11.09;100.00
8051;BME280;4068;42.158;24.732;2023-02-28T09:25:35;100557.75;;;11.28;100.00
8051;BME280;4068;42.158;24.732;2023-02-28T09:28:01;100554.75;;;11.19;100.00
8051;BME280;4068;42.158;24.732;2023-02-28T09:30:26;100550.31;;;10.93;100.00
8051;BME280;4068;42.158;24.732;2023-02-28T09:32:52;100541.38;;;10.81;100.00
8051;BME280;4068;42.158;24.732;2023-02-28T09:35:20;100543.50;;;10.88;100.00
8051;BME280;4068;42.158;24.732;2023-02-28T09:37:47;100535.97;;;10.82;100.00
8051;BME280;4068;42.158;24.732;2023-02-28T09:40:13;100541.19;;;10.84;100.00
8051;BME280;4068;42.158;24.732;2023-02-28T09:42:40;100515.38;;;10.59;100.00
8051;BME280;4068;42.158;24.732;2023-02-28T09:45:22;100549.09;;;10.71;100.00
8051;BME280;4068;42.158;24.732;2023-02-28T09:47:48;100543.03;;;10.96;100.00
8051;BME280;4068;42.158;24.732;2023-02-28T09:52:52;100554.19;;;10.74;100.00
8051;BME280;4068;42.158;24.732;2023-02-28T09:55:26;100540.13;;;10.86;100.00
8051;BME280;4068;42.158;24.732;2023-02-28T09:57:54;100541.28;;;10.82;100.00
8051;BME280;4068;42.158;24.732;2023-02-28T10:00:34;100529.88;;;10.67;100.00
8051;BME280;4068;42.158;24.732;2023-02-28T10:03:26;100507.53;;;10.57;100.00
8051;BME280;4068;42.158;24.732;2023-02-28T10:05:56;100513.50;;;10.88;100.00
8051;BME280;4068;42.158;24.732;2023-02-28T10:08:36;100514.91;;;11.07;100.00
8051;BME280;4068;42.158;24.732;2023-02-28T10:11:07;100518.84;;;11.14;100.00
8051;BME280;4068;42.158;24.732;2023-02-28T10:13:59;100518.44;;;11.20;100.00
8051;BME280;4068;42.158;24.732;2023-02-28T10:16:32;100520.13;;;11.08;100.00
8051;BME280;4068;42.158;24.732;2023-02-28T10:19:04;100485.78;;;10.92;100.00
8051;BME280;4068;42.158;24.732;2023-02-28T10:21:35;100517.06;;;11.27;100.00
8051;BME280;4068;42.158;24.732;2023-02-28T10:24:32;100514.84;;;11.60;100.00
8051;BME280;4068;42.158;24.732;2023-02-28T10:27:06;100492.22;;;11.41;100.00
8051;BME280;4068;42.158;24.732;2023-02-28T10:29:35;100490.53;;;11.53;100.00
8051;BME280;4068;42.158;24.732;2023-02-28T10:32:02;100467.69;;;11.50;100.00
8051;BME280;4068;42.158;24.732;2023-02-28T10:34:28;100492.44;;;11.38;100.00
8051;BME280;4068;42.158;24.732;2023-02-28T10:36:55;100506.38;;;11.42;100.00
8051;BME280;4068;42.158;24.732;2023-02-28T10:39:42;100501.78;;;11.31;100.00
8051;BME280;4068;42.158;24.732;2023-02-28T10:42:21;100500.72;;;11.20;100.00
8051;BME280;4068;42.158;24.732;2023-02-28T10:45:05;100476.16;;;10.64;100.00
8051;BME280;4068;42.158;24.732;2023-02-28T10:47:33;100467.91;;;10.41;100.00
8051;BME280;4068;42.158;24.732;2023-02-28T10:49:59;100480.75;;;10.47;100.00
8051;BME280;4068;42.158;24.732;2023-02-28T10:52:39;100492.28;;;10.61;100.00
8051;BME280;4068;42.158;24.732;2023-02-28T10:55:34;100489.63;;;10.61;100.00
8051;BME280;4068;42.158;24.732;2023-02-28T10:58:00;100487.03;;;10.46;100.00
8051;BME280;4068;42.158;24.732;2023-02-28T11:00:32;100490.16;;;10.39;100.00
8051;BME280;4068;42.158;24.732;2023-02-28T11:02:58;100477.56;;;10.42;100.00
8051;BME280;4068;42.158;24.732;2023-02-28T11:08:17;100479.47;;;10.26;100.00
8051;BME280;4068;42.158;24.732;2023-02-28T11:10:58;100483.41;;;10.33;100.00
8051;BME280;4068;42.158;24.732;2023-02-28T11:13:35;100476.44;;;10.17;100.00
8051;BME280;4068;42.158;24.732;2023-02-28T11:16:08;100472.31;;;9.99;100.00
8051;BME280;4068;42.158;24.732;2023-02-28T11:21:01;100470.63;;;9.98;100.00
8051;BME280;4068;42.158;24.732;2023-02-28T11:23:30;100464.13;;;9.89;100.00
8051;BME280;4068;42.158;24.732;2023-02-28T11:25:59;100471.00;;;9.92;100.00
8051;BME280;4068;42.158;24.732;2023-02-28T11:28:40;100464.03;;;9.91;100.00
8051;BME280;4068;42.158;24.732;2023-02-28T11:31:16;100467.25;;;9.67;100.00
8051;BME280;4068;42.158;24.732;2023-02-28T11:36:27;100473.31;;;9.83;100.00
8051;BME280;4068;42.158;24.732;2023-02-28T11:38:55;100463.47;;;9.71;100.00
8051;BME280;4068;42.158;24.732;2023-02-28T11:44:23;100460.34;;;9.50;100.00
8051;BME280;4068;42.158;24.732;2023-02-28T11:49:57;100427.63;;;9.51;100.00
8051;BME280;4068;42.158;24.732;2023-02-28T11:52:45;100455.53;;;9.57;100.00
8051;BME280;4068;42.158;24.732;2023-02-28T11:55:36;100440.03;;;9.65;100.00
8051;BME280;4068;42.158;24.732;2023-02-28T11:58:24;100456.38;;;9.57;100.00
8051;BME280;4068;42.158;24.732;2023-02-28T12:01:01;100455.44;;;9.44;100.00
8051;BME280;4068;42.158;24.732;2023-02-28T12:04:01;100453.91;;;9.40;100.00
8051;BME280;4068;42.158;24.732;2023-02-28T12:06:38;100450.69;;;9.35;100.00
8051;BME280;4068;42.158;24.732;2023-02-28T12:11:55;100450.13;;;9.29;100.00
8051;BME280;4068;42.158;24.732;2023-02-28T12:14:35;100414.50;;;9.21;100.00
8051;BME280;4068;42.158;24.732;2023-02-28T12:20:11;100452.22;;;9.39;100.00
8051;BME280;4068;42.158;24.732;2023-02-28T12:28:26;100447.75;;;9.25;100.00
8051;BME280;4068;42.158;24.732;2023-02-28T12:30:58;100453.78;;;9.12;100.00
8051;BME280;4068;42.158;24.732;2023-02-28T12:33:32;100447.69;;;9.26;100.00
8051;BME280;4068;42.158;24.732;2023-02-28T12:36:05;100444.66;;;9.32;100.00
8051;BME280;4068;42.158;24.732;2023-02-28T12:38:39;100424.59;;;9.28;100.00
8051;BME280;4068;42.158;24.732;2023-02-28T12:41:28;100437.16;;;9.25;100.00
8051;BME280;4068;42.158;24.732;2023-02-28T12:44:05;100434.53;;;9.39;100.00
8051;BME280;4068;42.158;24.732;2023-02-28T12:46:51;100434.72;;;9.36;100.00
8051;BME280;4068;42.158;24.732;2023-02-28T12:49:28;100433.38;;;9.29;100.00
8051;BME280;4068;42.158;24.732;2023-02-28T12:51:57;100415.50;;;9.04;100.00
8051;BME280;4068;42.158;24.732;2023-02-28T12:54:48;100436.59;;;9.20;100.00
8051;BME280;4068;42.158;24.732;2023-02-28T12:57:28;100433.66;;;9.24;100.00
8051;BME280;4068;42.158;24.732;2023-02-28T13:00:14;100416.75;;;9.12;100.00
8051;BME280;4068;42.158;24.732;2023-02-28T13:08:40;100422.53;;;9.33;100.00
8051;BME280;4068;42.158;24.732;2023-02-28T13:11:24;100422.44;;;9.35;100.00
8051;BME280;4068;42.158;24.732;2023-02-28T13:13:57;100403.13;;;9.19;100.00
8051;BME280;4068;42.158;24.732;2023-02-28T13:16:23;100403.63;;;9.11;100.00
8051;BME280;4068;42.158;24.732;2023-02-28T13:18:48;100422.78;;;9.14;100.00
8051;BME280;4068;42.158;24.732;2023-02-28T13:21:27;100419.78;;;9.21;100.00
8051;BME280;4068;42.158;24.732;2023-02-28T13:26:22;100423.16;;;9.08;100.00
8051;BME280;4068;42.158;24.732;2023-02-28T13:31:14;100418.38;;;9.15;100.00
8051;BME280;4068;42.158;24.732;2023-02-28T13:38:52;100409.94;;;9.23;100.00
8051;BME280;4068;42.158;24.732;2023-02-28T13:49:33;100386.25;;;8.76;100.00
8051;BME280;4068;42.158;24.732;2023-02-28T13:54:43;100411.31;;;8.85;100.00
8051;BME280;4068;42.158;24.732;2023-02-28T14:06:29;100417.56;;;8.98;100.00
8051;BME280;4068;42.158;24.732;2023-02-28T14:09:27;100422.97;;;9.11;100.00
8051;BME280;4068;42.158;24.732;2023-02-28T14:11:53;100425.44;;;9.14;100.00
8051;BME280;4068;42.158;24.732;2023-02-28T14:17:07;100420.97;;;9.01;100.00
8051;BME280;4068;42.158;24.732;2023-02-28T14:19:36;100427.13;;;9.01;100.00
8051;BME280;4068;42.158;24.732;2023-02-28T14:22:43;100429.00;;;8.99;100.00
8051;BME280;4068;42.158;24.732;2023-02-28T14:27:49;100427.63;;;9.08;100.00
8051;BME280;4068;42.158;24.732;2023-02-28T14:36:21;100416.72;;;8.68;100.00
8051;BME280;4068;42.158;24.732;2023-02-28T14:41:36;100423.84;;;8.67;100.00
8051;BME280;4068;42.158;24.732;2023-02-28T14:46:49;100423.66;;;8.70;100.00
8051;BME280;4068;42.158;24.732;2023-02-28T14:49:20;100434.41;;;8.67;100.00
8051;BME280;4068;42.158;24.732;2023-02-28T14:51:49;100412.44;;;8.51;100.00
8051;BME280;4068;42.158;24.732;2023-02-28T14:54:16;100431.06;;;8.79;100.00
8051;BME280;4068;42.158;24.732;2023-02-28T14:56:43;100403.97;;;8.60;100.00
8051;BME280;4068;42.158;24.732;2023-02-28T14:59:25;100428.66;;;8.75;100.00
8051;BME280;4068;42.158;24.732;2023-02-28T15:01:52;100420.81;;;8.73;100.00
8051;BME280;4068;42.158;24.732;2023-02-28T15:04:32;100445.41;;;8.75;100.00
8051;BME280;4068;42.158;24.732;2023-02-28T15:07:13;100441.22;;;8.71;100.00